Time;durP1;ratioP1;P1;durP2;ratioP2;P2;SDS_P1;SDS_P2;PMS_P1;PMS_P2;Temp;Humidity;BMP_temperature;BMP_pressure;BME280_temperature;BME280_humidity;BME280_pressure;Samples;Min_cycle;Max_cycle;Signal;HPM_P1;HPM_P2
2022/10/09 00:00:46;;;;;;;10.55;6.15;;;;;;;8.17;70.74;100959.49;1719934;80;21432;-48
2022/10/09 00:03:14;;;;;;;10.98;6.42;;;;;;;8.12;70.92;100962.86;1726382;82;21240;-47
2022/10/09 00:05:43;;;;;;;10.43;5.92;;;;;;;8.10;71.11;100960.81;1724685;82;21696;-47
2022/10/09 00:08:10;;;;;;;10.55;6.10;;;;;;;8.13;71.09;100951.42;1723048;82;21126;-48
2022/10/09 00:10:42;;;;;;;10.90;5.40;;;;;;;8.17;71.09;100952.11;1731556;82;21094;-47
2022/10/09 00:13:09;;;;;;;9.73;5.90;;;;;;;8.14;71.20;100952.29;1724071;82;21088;-47
2022/10/09 00:15:42;;;;;;;9.05;5.30;;;;;;;8.09;71.12;100947.31;1727033;82;21481;-48
2022/10/09 00:18:13;;;;;;;10.00;5.60;;;;;;;8.02;71.02;100948.63;1721135;82;21068;-48
2022/10/09 00:20:42;;;;;;;8.30;5.10;;;;;;;7.94;71.11;100938.59;1729556;80;21605;-47
2022/10/09 00:23:09;;;;;;;8.85;6.05;;;;;;;7.89;71.07;100930.17;1721718;82;21111;-48
2022/10/09 00:25:36;;;;;;;8.78;6.12;;;;;;;7.90;71.08;100930.56;1718328;80;21039;-50
2022/10/09 00:28:03;;;;;;;10.23;6.53;;;;;;;7.92;71.20;100928.68;1717549;82;21222;-47
2022/10/09 00:30:30;;;;;;;10.40;6.08;;;;;;;7.89;71.34;100924.09;1723997;82;21089;-48
2022/10/09 00:32:57;;;;;;;9.50;6.40;;;;;;;7.86;71.56;100925.11;1726502;82;21015;-48
2022/10/09 00:35:23;;;;;;;12.33;6.17;;;;;;;7.84;71.57;100925.67;1724705;80;21561;-48
2022/10/09 00:37:50;;;;;;;9.33;5.95;;;;;;;7.83;71.67;100924.45;1728288;82;21535;-47
2022/10/09 00:40:16;;;;;;;10.32;5.90;;;;;;;7.84;71.81;100919.13;1728797;82;23202;-48
2022/10/09 00:42:44;;;;;;;7.92;5.37;;;;;;;7.92;71.75;100918.20;1763176;80;21052;-47
2022/10/09 00:45:19;;;;;;;10.75;6.15;;;;;;;7.95;71.72;100916.71;1779985;80;21046;-48
2022/10/09 00:47:51;;;;;;;9.17;5.83;;;;;;;7.95;71.56;100916.71;1757642;80;21696;-47
2022/10/09 00:50:43;;;;;;;8.30;5.70;;;;;;;7.90;71.61;100912.22;1769601;80;21077;-48
2022/10/09 00:53:12;;;;;;;10.53;6.03;;;;;;;7.87;71.54;100912.40;1749410;82;21107;-49
2022/10/09 00:55:40;;;;;;;8.68;5.67;;;;;;;7.81;71.53;100908.34;1764886;80;21038;-47
2022/10/09 00:58:06;;;;;;;8.98;5.58;;;;;;;7.74;71.68;100900.48;1777913;80;20999;-47
2022/10/09 01:00:34;;;;;;;11.22;5.97;;;;;;;7.71;71.75;100900.66;1749710;80;21485;-47
2022/10/09 01:03:01;;;;;;;12.03;6.03;;;;;;;7.76;71.78;100903.02;1760932;80;21040;-47
2022/10/09 01:05:54;;;;;;;10.03;6.40;;;;;;;7.81;71.72;100910.14;1768391;80;21253;-47
2022/10/09 01:08:32;;;;;;;8.60;5.72;;;;;;;7.79;71.77;100907.60;1704665;82;21151;-48
2022/10/09 01:11:24;;;;;;;10.50;6.53;;;;;;;7.75;71.94;100902.63;1777287;80;20975;-48
2022/10/09 01:14:09;;;;;;;10.93;6.75;;;;;;;7.72;72.10;100905.46;1756718;80;21061;-48
2022/10/09 01:16:46;;;;;;;12.33;5.75;;;;;;;7.66;72.00;100904.51;1757515;80;21050;-47
2022/10/09 01:19:40;;;;;;;9.70;5.60;;;;;;;7.61;71.92;100899.05;1781056;80;21270;-48
2022/10/09 01:22:33;;;;;;;14.40;6.47;;;;;;;7.63;71.78;100899.83;1778583;80;21058;-48
2022/10/09 01:25:06;;;;;;;12.03;6.58;;;;;;;7.65;71.87;100896.26;1775500;80;21054;-47
2022/10/09 01:27:33;;;;;;;12.10;7.20;;;;;;;7.61;72.14;100895.13;1781490;80;21078;-47
2022/10/09 01:30:04;;;;;;;12.20;7.78;;;;;;;7.57;72.29;100898.88;1768955;79;21133;-47
2022/10/09 01:32:34;;;;;;;12.07;7.25;;;;;;;7.50;72.29;100901.49;1774675;80;21092;-47
2022/10/09 01:35:01;;;;;;;11.12;6.90;;;;;;;7.51;72.37;100903.63;1754152;80;21043;-47
2022/10/09 01:37:28;;;;;;;12.37;8.30;;;;;;;7.55;72.24;100907.77;1769739;80;21008;-47
2022/10/09 01:39:56;;;;;;;16.27;8.33;;;;;;;7.57;72.21;100905.91;1766464;79;21109;-47
2022/10/09 01:42:23;;;;;;;15.28;9.20;;;;;;;7.53;72.06;100907.86;1756261;80;21474;-47
2022/10/09 01:44:50;;;;;;;16.23;9.90;;;;;;;7.46;72.26;100909.13;1763342;80;21849;-47
2022/10/09 01:47:18;;;;;;;16.35;10.43;;;;;;;7.39;72.41;100906.03;1748474;80;21046;-47
2022/10/09 01:50:06;;;;;;;17.30;9.38;;;;;;;7.36;72.52;100910.16;1759707;80;21059;-47
2022/10/09 01:52:41;;;;;;;19.42;9.73;;;;;;;7.39;72.49;100915.19;1742573;82;21077;-47
2022/10/09 01:55:33;;;;;;;10.13;5.60;;;;;;;7.41;72.51;100904.63;1773110;80;21121;-47
2022/10/09 01:58:29;;;;;;;17.95;11.65;;;;;;;7.38;72.67;100906.98;1768750;80;21151;-47
2022/10/09 02:01:14;;;;;;;19.27;12.68;;;;;;;7.34;72.84;100907.24;1751053;79;21466;-47
2022/10/09 02:03:43;;;;;;;11.78;6.42;;;;;;;7.28;72.92;100907.58;1751062;80;21059;-48
2022/10/09 02:06:11;;;;;;;19.10;13.10;;;;;;;7.21;73.05;100908.41;1768204;80;21102;-47
2022/10/09 02:08:40;;;;;;;20.80;13.30;;;;;;;7.15;73.27;100903.06;1703020;83;21046;-47
2022/10/09 02:11:10;;;;;;;23.07;15.15;;;;;;;7.20;73.46;100903.64;1757788;80;21063;-48
2022/10/09 02:13:37;;;;;;;23.35;14.45;;;;;;;7.26;73.76;100905.05;1757817;80;21074;-47
2022/10/09 02:16:16;;;;;;;25.27;15.30;;;;;;;7.28;73.83;100895.80;1697776;82;21075;-48
2022/10/09 02:18:52;;;;;;;21.90;15.25;;;;;;;7.23;73.93;100892.17;1757799;80;21071;-49
2022/10/09 02:21:29;;;;;;;15.38;7.80;;;;;;;7.17;74.05;100896.44;1754682;80;21663;-48
2022/10/09 02:23:56;;;;;;;20.52;13.58;;;;;;;7.11;74.15;100908.11;1752817;80;21138;-48
2022/10/09 02:26:22;;;;;;;22.60;12.50;;;;;;;7.01;74.06;100904.30;1756163;80;21071;-48
2022/10/09 02:28:49;;;;;;;14.40;10.75;;;;;;;6.98;74.06;100902.72;1751444;80;20975;-47
2022/10/09 02:31:28;;;;;;;18.73;12.98;;;;;;;7.01;74.07;100897.77;1769056;80;21000;-47
2022/10/09 02:34:04;;;;;;;19.40;13.38;;;;;;;7.02;74.10;100903.39;1773689;80;20991;-47
2022/10/09 02:36:31;;;;;;;21.95;14.10;;;;;;;6.96;74.26;100907.20;1761755;80;21212;-48
2022/10/09 02:38:57;;;;;;;20.27;13.98;;;;;;;6.92;74.41;100905.67;1767127;80;21667;-47
2022/10/09 02:41:24;;;;;;;16.97;12.13;;;;;;;6.84;74.27;100900.89;1768174;80;21044;-47
2022/10/09 02:43:51;;;;;;;16.87;11.93;;;;;;;6.79;74.10;100904.23;1777712;79;21045;-47
2022/10/09 02:46:17;;;;;;;16.67;12.03;;;;;;;6.82;73.90;100903.20;1746793;82;21144;-47
2022/10/09 02:48:45;;;;;;;18.40;12.75;;;;;;;6.83;73.76;100907.05;1745145;82;21873;-48
2022/10/09 02:51:12;;;;;;;16.37;11.70;;;;;;;6.80;73.81;100898.53;1731249;82;21043;-50
2022/10/09 02:53:39;;;;;;;17.40;12.00;;;;;;;6.75;73.78;100897.95;1728383;82;21001;-47
2022/10/09 02:56:05;;;;;;;15.60;10.82;;;;;;;6.70;73.77;100894.27;1733460;82;21070;-47
2022/10/09 02:58:33;;;;;;;17.73;11.28;;;;;;;6.66;73.55;100895.38;1732440;82;20983;-48
2022/10/09 03:00:59;;;;;;;19.07;12.28;;;;;;;6.67;73.29;100894.44;1734902;82;22066;-48
2022/10/09 03:03:26;;;;;;;15.98;11.35;;;;;;;6.67;73.21;100890.07;1741499;82;21325;-47
2022/10/09 03:06:04;;;;;;;15.40;11.05;;;;;;;6.63;73.21;100890.31;1736209;82;21061;-47
2022/10/09 03:08:31;;;;;;;18.75;11.73;;;;;;;6.57;73.21;100884.94;1740512;82;21094;-49
2022/10/09 03:10:58;;;;;;;17.52;11.48;;;;;;;6.53;73.25;100885.22;1738065;80;21040;-47
2022/10/09 03:13:24;;;;;;;13.68;5.90;;;;;;;6.46;73.22;100888.63;1739585;80;21253;-47
2022/10/09 03:15:52;;;;;;;16.62;10.72;;;;;;;6.43;73.09;100884.87;1731409;82;21088;-47
2022/10/09 03:18:19;;;;;;;18.82;11.40;;;;;;;6.43;72.89;100883.09;1733806;82;21034;-48
2022/10/09 03:20:47;;;;;;;14.75;10.60;;;;;;;6.44;72.78;100883.92;1737163;82;21102;-48
2022/10/09 03:23:14;;;;;;;14.45;5.40;;;;;;;6.39;72.79;100876.36;1733532;80;21049;-48
2022/10/09 03:25:40;;;;;;;19.20;11.68;;;;;;;6.33;72.89;100880.61;1732256;82;21254;-48
2022/10/09 03:28:06;;;;;;;14.98;10.72;;;;;;;6.27;73.01;100877.00;1736241;80;20975;-48
2022/10/09 03:30:33;;;;;;;11.50;5.65;;;;;;;6.22;73.12;100870.74;1735100;81;21077;-48
2022/10/09 03:32:59;;;;;;;19.07;10.60;;;;;;;6.22;73.09;100873.80;1738314;81;21051;-48
2022/10/09 03:35:26;;;;;;;17.20;11.15;;;;;;;6.25;73.04;100867.11;1735937;81;21024;-48
2022/10/09 03:37:53;;;;;;;15.28;10.38;;;;;;;6.30;73.14;100867.25;1735634;82;21235;-48
2022/10/09 03:40:20;;;;;;;16.93;10.68;;;;;;;6.32;73.34;100860.61;1735690;80;21155;-48
2022/10/09 03:42:46;;;;;;;13.35;9.80;;;;;;;6.29;73.23;100860.33;1735394;82;21096;-48
2022/10/09 03:45:14;;;;;;;9.70;4.65;;;;;;;6.25;73.10;100855.34;1734314;82;21098;-47
2022/10/09 03:47:40;;;;;;;15.60;9.63;;;;;;;6.22;73.05;100854.20;1738540;82;21068;-47
2022/10/09 03:50:09;;;;;;;14.85;10.28;;;;;;;6.26;72.81;100850.51;1735089;82;21222;-48
2022/10/09 03:52:36;;;;;;;14.73;10.53;;;;;;;6.27;72.90;100854.35;1737230;81;21650;-48
2022/10/09 03:55:06;;;;;;;17.30;11.35;;;;;;;6.27;73.23;100851.73;1729719;82;21022;-48
2022/10/09 03:58:16;;;;;;;10.28;4.30;;;;;;;6.27;73.80;100858.71;1794719;79;23225;-49
2022/10/09 04:00:44;;;;;;;12.95;10.43;;;;;;;6.36;73.16;100863.45;1753274;81;21503;-49
2022/10/09 04:03:11;;;;;;;15.98;10.23;;;;;;;6.33;73.12;100861.00;1748180;81;21235;-49
2022/10/09 04:05:37;;;;;;;17.40;9.93;;;;;;;6.34;72.99;100869.23;1746736;81;20999;-49
2022/10/09 04:08:05;;;;;;;15.08;11.08;;;;;;;6.37;72.83;100864.28;1755816;81;20986;-49
2022/10/09 04:10:32;;;;;;;23.62;15.30;;;;;;;6.41;72.80;100878.89;1751665;81;21125;-49
2022/10/09 04:12:59;;;;;;;22.13;16.67;;;;;;;6.42;72.81;100867.05;1752298;81;21104;-48
2022/10/09 04:15:26;;;;;;;13.18;6.72;;;;;;;6.41;72.98;100874.50;1758639;80;21307;-49
2022/10/09 04:17:53;;;;;;;22.37;16.15;;;;;;;6.40;73.16;100867.57;1754734;80;21109;-49
2022/10/09 04:20:20;;;;;;;23.52;16.30;;;;;;;6.37;73.05;100868.20;1751027;81;21125;-49
2022/10/09 04:22:47;;;;;;;25.82;17.55;;;;;;;6.35;73.09;100868.77;1751884;80;21077;-49
2022/10/09 04:25:14;;;;;;;26.30;16.87;;;;;;;6.42;73.03;100864.88;1751299;81;21150;-49
2022/10/09 04:27:42;;;;;;;16.85;7.50;;;;;;;6.46;73.08;100863.80;1747614;81;21142;-49
2022/10/09 04:30:10;;;;;;;23.02;15.45;;;;;;;6.46;73.22;100863.33;1724006;81;21046;-49
2022/10/09 04:32:37;;;;;;;23.27;17.02;;;;;;;6.46;73.44;100856.78;1735506;81;21403;-49
2022/10/09 04:35:05;;;;;;;21.73;15.63;;;;;;;6.47;73.45;100855.01;1705850;83;21014;-49
2022/10/09 04:37:31;;;;;;;24.18;16.93;;;;;;;6.48;73.25;100863.24;1707055;83;21089;-49
2022/10/09 04:39:58;;;;;;;27.75;17.00;;;;;;;6.51;72.90;100857.37;1718051;83;21241;-49
2022/10/09 04:42:24;;;;;;;18.77;8.73;;;;;;;6.54;72.89;100860.74;1713880;83;21129;-49
2022/10/09 04:44:51;;;;;;;26.10;18.15;;;;;;;6.49;72.97;100859.23;1719156;83;21071;-49
2022/10/09 04:47:18;;;;;;;29.27;19.32;;;;;;;6.47;73.10;100856.31;1715770;83;21065;-49
2022/10/09 04:49:44;;;;;;;26.62;18.82;;;;;;;6.45;73.18;100860.31;1708397;82;21105;-49
2022/10/09 04:52:11;;;;;;;21.23;16.82;;;;;;;6.48;73.26;100860.16;1713963;83;21222;-54
2022/10/09 04:54:38;;;;;;;26.40;17.65;;;;;;;6.57;73.23;100859.27;1717905;81;21058;-50
2022/10/09 04:57:04;;;;;;;19.20;13.70;;;;;;;6.65;73.39;100861.83;1709800;82;21122;-48
2022/10/09 04:59:31;;;;;;;19.52;13.68;;;;;;;6.67;73.48;100870.89;1689259;83;21094;-49
2022/10/09 05:01:57;;;;;;;19.50;13.13;;;;;;;6.68;73.64;100866.06;1702027;84;21046;-49
2022/10/09 05:04:24;;;;;;;16.70;12.23;;;;;;;6.70;73.83;100865.50;1699468;82;21624;-49
2022/10/09 05:06:50;;;;;;;17.73;11.93;;;;;;;6.76;73.94;100863.86;1700504;84;21498;-49
2022/10/09 05:09:17;;;;;;;15.98;11.30;;;;;;;6.90;73.92;100863.06;1699346;84;21007;-49
2022/10/09 05:11:44;;;;;;;16.42;11.25;;;;;;;7.04;73.71;100864.44;1689575;83;21067;-49
2022/10/09 05:14:12;;;;;;;17.05;11.75;;;;;;;7.08;73.68;100865.10;1684233;84;21145;-49
2022/10/09 05:16:39;;;;;;;16.15;11.53;;;;;;;7.10;74.02;100870.25;1679789;83;21285;-49
2022/10/09 05:19:08;;;;;;;16.30;11.15;;;;;;;7.15;74.23;100870.35;1694107;84;21557;-49
2022/10/09 05:21:35;;;;;;;18.40;11.53;;;;;;;7.23;74.22;100869.92;1701074;84;21478;-49
2022/10/09 05:24:03;;;;;;;19.45;12.20;;;;;;;7.37;74.16;100869.11;1701506;84;21077;-49
2022/10/09 05:26:30;;;;;;;16.73;11.68;;;;;;;7.49;74.13;100864.44;1703261;83;21356;-49
2022/10/09 05:28:56;;;;;;;16.23;11.38;;;;;;;7.54;74.35;100875.48;1702278;83;21216;-49
2022/10/09 05:31:26;;;;;;;18.55;11.50;;;;;;;7.63;74.55;100871.02;1706034;83;21071;-49
2022/10/09 05:33:54;;;;;;;14.20;10.70;;;;;;;7.76;74.70;100874.20;1703682;84;21078;-48
2022/10/09 05:36:20;;;;;;;15.85;11.48;;;;;;;7.91;74.67;100871.95;1699374;83;21756;-49
2022/10/09 05:38:48;;;;;;;14.80;11.18;;;;;;;8.05;74.75;100879.44;1700485;83;21140;-49
2022/10/09 05:41:16;;;;;;;17.77;11.60;;;;;;;8.13;75.10;100879.81;1703176;83;21257;-49
2022/10/09 05:43:45;;;;;;;14.00;10.43;;;;;;;8.21;75.46;100877.56;1703538;84;21059;-49
2022/10/09 05:46:16;;;;;;;15.95;11.25;;;;;;;8.36;75.49;100881.84;1700609;83;21057;-49
2022/10/09 05:48:46;;;;;;;18.00;11.40;;;;;;;8.55;75.35;100881.55;1695007;84;21161;-49
2022/10/09 05:51:19;;;;;;;15.30;12.05;;;;;;;8.68;75.33;100872.44;1700009;84;21079;-49
2022/10/09 05:53:47;;;;;;;18.73;12.23;;;;;;;8.80;75.47;100873.91;1705359;84;21881;-50
2022/10/09 05:56:22;;;;;;;18.07;12.28;;;;;;;8.90;75.58;100882.38;1699961;84;21112;-50
2022/10/09 05:58:56;;;;;;;19.70;12.55;;;;;;;8.99;75.53;100876.16;1719053;83;21058;-50
2022/10/09 06:01:25;;;;;;;16.07;11.78;;;;;;;9.10;75.45;100874.52;1719486;83;21014;-49
2022/10/09 06:03:54;;;;;;;17.25;12.37;;;;;;;9.27;75.23;100880.44;1711032;83;21532;-47
2022/10/09 06:06:22;;;;;;;19.12;13.53;;;;;;;9.41;75.09;100880.81;1720518;83;21234;-48
2022/10/09 06:08:49;;;;;;;17.42;12.60;;;;;;;9.48;75.19;100882.08;1708279;83;21063;-47
2022/10/09 06:11:20;;;;;;;14.35;11.40;;;;;;;9.55;75.28;100883.81;1715792;83;21094;-48
2022/10/09 06:13:46;;;;;;;18.62;12.55;;;;;;;9.63;75.16;100879.75;1716379;83;21083;-49
2022/10/09 06:16:14;;;;;;;16.65;11.33;;;;;;;9.77;74.91;100884.54;1715880;83;21535;-48
2022/10/09 06:18:45;;;;;;;18.37;11.83;;;;;;;9.90;74.82;100877.94;1719120;83;21106;-47
2022/10/09 06:21:12;;;;;;;16.95;12.23;;;;;;;10.01;74.62;100881.98;1714642;83;21050;-47
2022/10/09 06:23:39;;;;;;;17.57;12.80;;;;;;;10.09;74.47;100877.03;1692367;83;21659;-48
2022/10/09 06:26:09;;;;;;;16.40;11.65;;;;;;;10.18;74.33;100879.48;1696880;83;21070;-48
2022/10/09 06:28:36;;;;;;;16.10;12.03;;;;;;;10.27;74.01;100880.17;1695384;83;21597;-48
2022/10/09 06:31:11;;;;;;;14.60;11.63;;;;;;;10.40;73.63;100880.98;1706064;83;21096;-48
2022/10/09 06:33:40;;;;;;;18.70;11.83;;;;;;;10.55;72.85;100884.80;1718731;83;21570;-47
2022/10/09 06:36:10;;;;;;;16.60;12.80;;;;;;;10.61;72.25;100877.78;1719179;83;21043;-47
2022/10/09 06:38:37;;;;;;;16.73;12.65;;;;;;;10.66;71.88;100881.37;1705720;83;21067;-48
2022/10/09 06:41:06;;;;;;;16.30;12.05;;;;;;;10.70;71.55;100881.05;1717421;82;21067;-48
2022/10/09 06:43:33;;;;;;;17.37;12.37;;;;;;;10.80;71.12;100875.95;1720896;82;21538;-48
2022/10/09 06:46:00;;;;;;;15.03;11.08;;;;;;;10.91;70.77;100878.66;1703797;83;21540;-48
2022/10/09 06:48:34;;;;;;;18.80;11.57;;;;;;;11.04;70.46;100879.88;1702217;83;21078;-47
2022/10/09 06:51:10;;;;;;;15.38;10.45;;;;;;;11.16;70.34;100874.18;1705487;83;21062;-49
2022/10/09 06:53:43;;;;;;;17.35;11.00;;;;;;;11.25;69.99;100873.99;1691947;83;21074;-49
2022/10/09 06:56:10;;;;;;;16.80;10.48;;;;;;;11.31;69.61;100871.73;1702953;83;21921;-49
2022/10/09 06:58:37;;;;;;;14.20;9.28;;;;;;;11.38;69.46;100868.62;1710606;83;21529;-49
2022/10/09 07:01:13;;;;;;;13.65;8.20;;;;;;;11.48;69.21;100870.45;1683306;83;21022;-49
2022/10/09 07:03:43;;;;;;;12.82;8.90;;;;;;;11.61;68.68;100877.41;1679572;84;21083;-49
2022/10/09 07:06:17;;;;;;;16.07;9.63;;;;;;;11.73;68.59;100877.78;1736774;82;21051;-49
2022/10/09 07:08:52;;;;;;;14.05;9.78;;;;;;;11.82;68.38;100881.53;1750564;81;21209;-50
2022/10/09 07:11:24;;;;;;;14.03;8.70;;;;;;;11.90;67.79;100887.88;1738815;81;21000;-49
2022/10/09 07:13:54;;;;;;;15.43;9.98;;;;;;;11.98;67.56;100887.79;1726078;82;21525;-48
2022/10/09 07:16:31;;;;;;;13.50;8.35;;;;;;;12.06;67.56;100890.19;1702925;82;21578;-48
2022/10/09 07:19:02;;;;;;;14.03;9.08;;;;;;;12.16;67.28;100883.70;1685800;85;21635;-48
2022/10/09 07:21:28;;;;;;;13.38;9.38;;;;;;;12.33;66.66;100882.38;1738519;82;21088;-49
2022/10/09 07:23:55;;;;;;;15.60;9.75;;;;;;;12.44;66.31;100881.05;1714478;83;21105;-49
2022/10/09 07:26:24;;;;;;;12.30;8.78;;;;;;;12.54;66.26;100878.97;1749643;82;21023;-48
2022/10/09 07:28:51;;;;;;;16.27;8.58;;;;;;;12.58;65.94;100865.90;1734156;82;21039;-49
2022/10/09 07:31:17;;;;;;;14.10;8.88;;;;;;;12.68;65.74;100865.51;1748853;82;21050;-49
2022/10/09 07:33:49;;;;;;;14.53;8.45;;;;;;;12.74;65.59;100861.52;1749480;82;21227;-49
2022/10/09 07:36:16;;;;;;;13.48;8.43;;;;;;;12.85;65.23;100867.27;1734860;82;21509;-48
2022/10/09 07:38:52;;;;;;;12.63;7.62;;;;;;;12.99;64.83;100865.16;1723758;81;21202;-49
2022/10/09 07:41:20;;;;;;;12.70;8.73;;;;;;;13.13;64.53;100864.47;1715665;82;21109;-49
2022/10/09 07:43:46;;;;;;;12.80;9.08;;;;;;;13.23;64.43;100859.27;1750243;81;21102;-49
2022/10/09 07:46:17;;;;;;;11.83;8.08;;;;;;;13.33;63.81;100856.23;1696312;82;21577;-49
2022/10/09 07:48:44;;;;;;;15.10;8.15;;;;;;;13.41;63.92;100848.99;1720611;83;21634;-49
2022/10/09 07:51:19;;;;;;;14.50;7.87;;;;;;;13.51;63.27;100844.10;1711770;82;21074;-49
2022/10/09 07:53:46;;;;;;;13.45;7.53;;;;;;;13.60;62.42;100852.22;1706679;82;20995;-49
2022/10/09 07:56:15;;;;;;;11.65;7.67;;;;;;;13.63;62.19;100848.83;1740925;82;21055;-49
2022/10/09 07:58:42;;;;;;;12.18;7.37;;;;;;;13.73;62.37;100849.73;1745728;81;21236;-49
2022/10/09 08:01:09;;;;;;;9.95;7.03;;;;;;;13.90;62.12;100845.63;1729382;81;21055;-49
2022/10/09 08:03:37;;;;;;;12.47;8.30;;;;;;;14.02;62.48;100841.08;1722461;82;20996;-48
2022/10/09 08:06:04;;;;;;;13.45;8.28;;;;;;;14.16;62.98;100840.36;1736879;81;20997;-49
2022/10/09 08:08:32;;;;;;;11.57;8.03;;;;;;;14.33;62.94;100845.48;1688094;83;21015;-49
2022/10/09 08:11:00;;;;;;;12.75;8.20;;;;;;;14.41;62.53;100847.80;1733166;82;21583;-49
2022/10/09 08:13:26;;;;;;;12.28;7.92;;;;;;;14.48;62.10;100838.82;1683257;84;21490;-49
2022/10/09 08:15:55;;;;;;;11.57;7.22;;;;;;;14.53;61.56;100833.13;1746535;80;21120;-49
2022/10/09 08:18:22;;;;;;;14.65;8.28;;;;;;;14.58;61.01;100833.05;1649430;84;21453;-48
2022/10/09 08:20:58;;;;;;;11.65;7.33;;;;;;;14.64;61.27;100833.00;1705860;83;21138;-47
2022/10/09 08:23:25;;;;;;;11.68;7.22;;;;;;;14.70;61.64;100827.16;1704991;83;21233;-48
2022/10/09 08:25:51;;;;;;;16.12;8.70;;;;;;;14.83;61.82;100825.57;1704048;83;21512;-48
2022/10/09 08:28:18;;;;;;;11.55;7.95;;;;;;;14.94;61.92;100824.08;1707326;83;21190;-48
2022/10/09 08:30:45;;;;;;;12.28;7.87;;;;;;;15.02;62.00;100828.69;1705396;83;21071;-47
2022/10/09 08:33:13;;;;;;;12.10;8.35;;;;;;;15.06;61.84;100824.77;1708351;83;21130;-48
2022/10/09 08:35:39;;;;;;;12.73;8.58;;;;;;;15.07;61.56;100819.00;1705544;83;21208;-48
2022/10/09 08:38:06;;;;;;;14.15;8.23;;;;;;;15.11;61.53;100817.72;1704777;83;21015;-47
2022/10/09 08:40:47;;;;;;;11.97;7.45;;;;;;;15.11;61.40;100816.40;1706464;83;21014;-49
2022/10/09 08:43:16;;;;;;;10.25;7.55;;;;;;;15.12;61.59;100812.78;1705314;83;20995;-48
2022/10/09 08:45:42;;;;;;;10.05;7.28;;;;;;;15.19;61.55;100811.23;1707427;83;21070;-48
2022/10/09 08:48:21;;;;;;;12.95;7.65;;;;;;;15.29;61.47;100809.89;1707921;83;21244;-48
2022/10/09 08:50:56;;;;;;;14.10;7.33;;;;;;;15.33;61.00;100808.14;1704019;83;21146;-48
2022/10/09 08:53:41;;;;;;;10.15;7.00;;;;;;;15.39;60.37;100814.17;1703006;83;21162;-48
2022/10/09 08:56:13;;;;;;;16.60;6.85;;;;;;;15.47;60.03;100812.14;1704335;83;21051;-48
2022/10/09 08:58:42;;;;;;;17.87;7.72;;;;;;;15.54;59.77;100812.40;1698790;83;21079;-48
2022/10/09 09:01:38;;;;;;;9.95;6.62;;;;;;;15.60;60.21;100810.00;1684480;83;22179;-47
2022/10/09 09:04:25;;;;;;;10.80;6.62;;;;;;;15.74;59.81;100810.02;1690514;83;21076;-47
2022/10/09 09:07:13;;;;;;;12.03;6.55;;;;;;;15.87;58.39;100799.11;1700441;83;21123;-52
2022/10/09 09:09:57;;;;;;;12.43;7.22;;;;;;;15.96;57.93;100795.55;1710315;83;21075;-47
2022/10/09 09:12:35;;;;;;;13.40;6.80;;;;;;;16.07;57.83;100786.57;1702902;83;21084;-49
2022/10/09 09:15:45;;;;;;;11.50;6.72;;;;;;;16.19;58.46;100785.87;1708809;83;21235;-49
2022/10/09 09:18:30;;;;;;;13.90;7.33;;;;;;;16.32;58.99;100773.53;1705939;83;21122;-48
2022/10/09 09:21:04;;;;;;;10.65;7.22;;;;;;;16.47;58.84;100767.20;1704539;83;21142;-47
2022/10/09 09:23:38;;;;;;;11.40;7.87;;;;;;;16.54;58.83;100757.63;1692395;83;22208;-47
2022/10/09 09:26:14;;;;;;;11.80;7.15;;;;;;;16.64;58.47;100761.55;1711563;83;21576;-47
2022/10/09 09:28:41;;;;;;;11.88;7.10;;;;;;;16.76;58.51;100760.81;1703297;83;21077;-47
2022/10/09 09:31:20;;;;;;;13.68;6.85;;;;;;;16.83;56.59;100769.35;1692519;83;21482;-47
2022/10/09 09:34:13;;;;;;;10.78;6.70;;;;;;;16.88;55.59;100776.91;1712948;83;21042;-48
2022/10/09 09:36:50;;;;;;;7.47;4.67;;;;;;;16.92;55.07;100776.92;1729276;81;21098;-47
2022/10/09 09:39:16;;;;;;;11.12;4.85;;;;;;;16.98;52.94;100776.31;1750223;82;21046;-47
2022/10/09 09:41:43;;;;;;;11.83;4.35;;;;;;;17.07;51.12;100781.19;1744748;82;21240;-47
2022/10/09 09:44:10;;;;;;;7.70;3.58;;;;;;;17.11;50.80;100783.86;1722804;81;21031;-47
2022/10/09 09:46:38;;;;;;;8.35;4.30;;;;;;;17.16;50.29;100780.73;1705174;82;21010;-47
2022/10/09 09:49:18;;;;;;;12.85;3.98;;;;;;;17.20;49.37;100785.59;1722303;82;21077;-47
2022/10/09 09:51:46;;;;;;;8.50;3.90;;;;;;;17.28;49.03;100786.13;1745034;81;21110;-48
2022/10/09 09:54:22;;;;;;;7.53;4.10;;;;;;;17.35;47.60;100787.66;1750861;81;21476;-47
2022/10/09 09:56:48;;;;;;;6.80;3.05;;;;;;;17.45;47.85;100782.59;1749023;81;21313;-48
2022/10/09 09:59:34;;;;;;;6.87;3.22;;;;;;;17.57;46.62;100783.14;1743999;81;21079;-48
2022/10/09 10:02:06;;;;;;;;;;;;;;;17.69;45.08;100775.72;1740340;82;21503;-48
2022/10/09 10:04:33;;;;;;;6.45;3.27;;;;;;;17.78;44.84;100773.91;1742516;82;20247;-48
2022/10/09 10:07:00;;;;;;;6.65;2.92;;;;;;;17.85;45.94;100769.61;1738722;82;21133;-48
2022/10/09 10:09:26;;;;;;;5.83;2.95;;;;;;;17.94;44.29;100768.69;1737030;82;21479;-47
2022/10/09 10:11:58;;;;;;;6.62;2.67;;;;;;;18.02;44.16;100755.87;1731762;80;21063;-48
2022/10/09 10:14:25;;;;;;;6.00;3.15;;;;;;;18.12;43.84;100757.08;1717008;83;21059;-48
2022/10/09 10:16:54;;;;;;;7.30;2.92;;;;;;;18.21;43.40;100757.44;1715209;82;21095;-48
2022/10/09 10:19:30;;;;;;;13.30;3.27;;;;;;;18.28;43.45;100747.79;1734447;82;21358;-48
2022/10/09 10:22:01;;;;;;;8.00;3.05;;;;;;;18.39;43.47;100751.95;1735180;82;21052;-48
2022/10/09 10:24:40;;;;;;;6.50;2.92;;;;;;;18.45;41.55;100755.30;1732641;82;21499;-48
2022/10/09 10:27:36;;;;;;;6.95;3.83;;;;;;;18.52;41.92;100748.81;1733655;82;21072;-48
2022/10/09 10:30:10;;;;;;;9.75;3.12;;;;;;;18.62;42.39;100748.14;1718199;83;21518;-48
2022/10/09 10:32:58;;;;;;;6.33;2.87;;;;;;;18.76;42.08;100750.62;1689425;83;21702;-48
2022/10/09 10:35:38;;;;;;;6.92;3.20;;;;;;;18.87;42.54;100754.84;1714758;82;21093;-48
2022/10/09 10:38:20;;;;;;;7.65;3.55;;;;;;;18.97;41.98;100749.33;1715509;83;21482;-48
2022/10/09 10:40:56;;;;;;;8.10;3.47;;;;;;;19.06;42.65;100745.63;1715465;82;21484;-48
2022/10/09 10:43:34;;;;;;;7.95;3.50;;;;;;;19.16;42.80;100743.61;1716059;82;21591;-48
2022/10/09 10:46:26;;;;;;;5.15;2.83;;;;;;;19.33;42.96;100745.73;1733295;81;21336;-48
2022/10/09 10:48:53;;;;;;;6.80;3.33;;;;;;;19.49;40.92;100739.52;1716823;82;21053;-48
2022/10/09 10:52:01;;;;;;;5.12;2.80;;;;;;;19.63;41.38;100731.28;1708929;82;21066;-48
2022/10/09 10:54:39;;;;;;;6.03;3.00;;;;;;;19.81;41.65;100733.74;1721989;82;21644;-48
2022/10/09 10:57:17;;;;;;;10.15;3.15;;;;;;;19.99;40.97;100734.31;1732397;82;21047;-48
2022/10/09 11:00:06;;;;;;;6.47;3.22;;;;;;;20.04;40.47;100727.11;1748220;81;22207;-49
2022/10/09 11:02:52;;;;;;;7.25;3.83;;;;;;;19.99;39.93;100718.28;1744054;80;21607;-49
2022/10/09 11:05:39;;;;;;;5.85;3.42;;;;;;;19.93;40.45;100716.82;1747254;81;20999;-49
2022/10/09 11:08:29;;;;;;;5.90;3.60;;;;;;;19.88;40.71;100714.67;1689789;84;21075;-49
2022/10/09 11:11:14;;;;;;;7.78;3.80;;;;;;;19.80;40.61;100711.56;1692607;84;20996;-49
2022/10/09 11:14:12;;;;;;;6.47;3.67;;;;;;;19.75;41.13;100713.07;1693471;84;22070;-49
2022/10/09 11:16:56;;;;;;;8.08;3.90;;;;;;;19.67;41.24;100706.75;1691260;84;21646;-49
2022/10/09 11:20:06;;;;;;;8.73;3.62;;;;;;;19.61;41.83;100710.61;1705448;82;21134;-49
2022/10/09 11:23:16;;;;;;;9.83;4.90;;;;;;;19.55;42.15;100703.29;1719264;82;21053;-49
2022/10/09 11:26:01;;;;;;;8.55;4.12;;;;;;;19.49;42.33;100704.83;1717282;82;21042;-49
2022/10/09 11:28:31;;;;;;;7.65;4.55;;;;;;;19.40;42.58;100704.03;1663384;84;21166;-48
2022/10/09 11:31:03;;;;;;;8.28;4.20;;;;;;;19.35;42.97;100704.20;1694999;84;21016;-48
2022/10/09 11:33:49;;;;;;;9.05;4.10;;;;;;;19.29;43.33;100703.06;1666188;84;21155;-48
2022/10/09 11:36:36;;;;;;;6.08;3.70;;;;;;;19.27;43.00;100701.91;1717544;82;21505;-47
2022/10/09 11:39:05;;;;;;;7.92;4.12;;;;;;;19.27;43.29;100705.08;1689895;83;21049;-48
2022/10/09 11:41:31;;;;;;;8.25;3.72;;;;;;;19.29;43.72;100706.56;1715218;83;21259;-48